sensor_id;sensor_type;location;lat;lon;timestamp;pressure;altitude;pressure_sealevel;temperature;humidity
43071;BME280;36278;47.952;21.714;2023-04-01T00:00:32;98863.66;;;10.98;100.00
43071;BME280;36278;47.952;21.714;2023-04-01T00:02:57;98858.09;;;11.01;100.00
43071;BME280;36278;47.952;21.714;2023-04-01T00:05:23;98860.47;;;11.12;100.00
43071;BME280;36278;47.952;21.714;2023-04-01T00:07:52;98860.47;;;11.12;100.00
43071;BME280;36278;47.952;21.714;2023-04-01T00:10:17;98860.94;;;11.08;100.00
43071;BME280;36278;47.952;21.714;2023-04-01T00:12:43;98859.13;;;11.08;100.00
43071;BME280;36278;47.952;21.714;2023-04-01T00:15:10;98862.91;;;11.06;100.00
43071;BME280;36278;47.952;21.714;2023-04-01T00:17:37;98850.97;;;11.02;100.00
43071;BME280;36278;47.952;21.714;2023-04-01T00:20:03;98839.53;;;11.01;100.00
43071;BME280;36278;47.952;21.714;2023-04-01T00:22:29;98847.31;;;11.03;100.00
43071;BME280;36278;47.952;21.714;2023-04-01T00:24:55;98840.81;;;10.97;100.00
43071;BME280;36278;47.952;21.714;2023-04-01T00:27:20;98840.19;;;11.03;100.00
43071;BME280;36278;47.952;21.714;2023-04-01T00:29:46;98842.19;;;11.01;100.00
43071;BME280;36278;47.952;21.714;2023-04-01T00:32:13;98838.53;;;11.02;100.00
43071;BME280;36278;47.952;21.714;2023-04-01T00:34:39;98842.78;;;10.95;100.00
43071;BME280;36278;47.952;21.714;2023-04-01T00:37:05;98838.31;;;10.95;100.00
43071;BME280;36278;47.952;21.714;2023-04-01T00:39:32;98830.97;;;10.89;100.00
43071;BME280;36278;47.952;21.714;2023-04-01T00:41:58;98835.09;;;10.84;100.00
43071;BME280;36278;47.952;21.714;2023-04-01T00:44:26;98834.13;;;10.85;100.00
43071;BME280;36278;47.952;21.714;2023-04-01T00:46:52;98838.19;;;10.79;100.00
43071;BME280;36278;47.952;21.714;2023-04-01T00:49:21;98824.44;;;10.76;100.00
43071;BME280;36278;47.952;21.714;2023-04-01T00:51:50;98829.19;;;10.72;100.00
43071;BME280;36278;47.952;21.714;2023-04-01T00:54:18;98823.56;;;10.67;100.00
43071;BME280;36278;47.952;21.714;2023-04-01T00:57:08;98825.72;;;10.72;100.00
43071;BME280;36278;47.952;21.714;2023-04-01T00:59:46;98822.25;;;10.71;100.00
43071;BME280;36278;47.952;21.714;2023-04-01T01:02:14;98814.13;;;10.73;100.00
43071;BME280;36278;47.952;21.714;2023-04-01T01:04:41;98808.00;;;10.72;100.00
43071;BME280;36278;47.952;21.714;2023-04-01T01:07:15;98815.28;;;10.70;100.00
43071;BME280;36278;47.952;21.714;2023-04-01T01:15:26;98816.50;;;10.76;100.00
43071;BME280;36278;47.952;21.714;2023-04-01T01:26:46;98806.66;;;10.68;100.00
43071;BME280;36278;47.952;21.714;2023-04-01T01:37:35;98790.56;;;10.61;100.00
43071;BME280;36278;47.952;21.714;2023-04-01T01:40:05;98797.69;;;10.61;100.00
43071;BME280;36278;47.952;21.714;2023-04-01T01:42:33;98799.66;;;10.59;100.00
43071;BME280;36278;47.952;21.714;2023-04-01T01:45:01;98804.19;;;10.49;100.00
43071;BME280;36278;47.952;21.714;2023-04-01T01:47:29;98810.78;;;10.45;100.00
43071;BME280;36278;47.952;21.714;2023-04-01T01:49:55;98813.19;;;10.38;100.00
43071;BME280;36278;47.952;21.714;2023-04-01T01:52:22;98802.84;;;10.27;100.00
43071;BME280;36278;47.952;21.714;2023-04-01T01:54:53;98800.88;;;10.29;100.00
43071;BME280;36278;47.952;21.714;2023-04-01T01:57:24;98806.00;;;10.30;100.00
43071;BME280;36278;47.952;21.714;2023-04-01T01:59:53;98805.34;;;10.28;100.00
43071;BME280;36278;47.952;21.714;2023-04-01T02:02:22;98806.16;;;10.29;100.00
43071;BME280;36278;47.952;21.714;2023-04-01T02:04:51;98806.44;;;10.26;100.00
43071;BME280;36278;47.952;21.714;2023-04-01T02:07:25;98803.97;;;10.24;100.00
43071;BME280;36278;47.952;21.714;2023-04-01T02:09:53;98798.66;;;10.24;100.00
43071;BME280;36278;47.952;21.714;2023-04-01T02:12:20;98801.91;;;10.18;100.00
43071;BME280;36278;47.952;21.714;2023-04-01T02:15:03;98798.56;;;10.16;100.00
43071;BME280;36278;47.952;21.714;2023-04-01T02:17:32;98805.81;;;10.14;100.00
43071;BME280;36278;47.952;21.714;2023-04-01T02:20:03;98801.66;;;10.11;100.00
43071;BME280;36278;47.952;21.714;2023-04-01T02:22:36;98806.25;;;10.09;100.00
43071;BME280;36278;47.952;21.714;2023-04-01T02:25:06;98808.06;;;10.09;100.00
43071;BME280;36278;47.952;21.714;2023-04-01T02:27:32;98801.44;;;10.05;100.00
43071;BME280;36278;47.952;21.714;2023-04-01T02:29:58;98798.53;;;9.98;100.00
43071;BME280;36278;47.952;21.714;2023-04-01T02:32:25;98803.75;;;10.08;100.00
43071;BME280;36278;47.952;21.714;2023-04-01T02:34:51;98800.28;;;10.07;100.00
43071;BME280;36278;47.952;21.714;2023-04-01T02:37:18;98806.97;;;10.11;100.00
43071;BME280;36278;47.952;21.714;2023-04-01T02:39:43;98791.84;;;10.04;100.00
43071;BME280;36278;47.952;21.714;2023-04-01T02:42:09;98811.78;;;10.16;100.00
43071;BME280;36278;47.952;21.714;2023-04-01T02:44:35;98808.63;;;10.13;100.00
43071;BME280;36278;47.952;21.714;2023-04-01T02:47:01;98805.38;;;10.19;100.00
43071;BME280;36278;47.952;21.714;2023-04-01T02:49:27;98805.06;;;10.22;100.00
43071;BME280;36278;47.952;21.714;2023-04-01T02:51:52;98799.22;;;10.28;100.00
43071;BME280;36278;47.952;21.714;2023-04-01T02:54:18;98800.31;;;10.25;100.00
43071;BME280;36278;47.952;21.714;2023-04-01T02:56:44;98807.97;;;10.28;100.00
43071;BME280;36278;47.952;21.714;2023-04-01T02:59:10;98816.50;;;10.22;100.00
43071;BME280;36278;47.952;21.714;2023-04-01T03:01:36;98808.97;;;10.27;100.00
43071;BME280;36278;47.952;21.714;2023-04-01T03:04:01;98805.94;;;10.22;100.00
43071;BME280;36278;47.952;21.714;2023-04-01T03:06:27;98807.03;;;10.20;100.00
43071;BME280;36278;47.952;21.714;2023-04-01T03:08:52;98805.06;;;10.22;100.00
43071;BME280;36278;47.952;21.714;2023-04-01T03:11:18;98807.97;;;10.28;100.00
43071;BME280;36278;47.952;21.714;2023-04-01T03:13:43;98803.69;;;10.18;100.00
43071;BME280;36278;47.952;21.714;2023-04-01T03:16:09;98788.34;;;10.21;100.00
43071;BME280;36278;47.952;21.714;2023-04-01T03:18:34;98804.56;;;10.18;100.00
43071;BME280;36278;47.952;21.714;2023-04-01T03:21:16;98801.81;;;10.10;100.00
43071;BME280;36278;47.952;21.714;2023-04-01T03:23:43;98806.06;;;10.21;100.00
43071;BME280;36278;47.952;21.714;2023-04-01T03:26:08;98806.59;;;10.24;100.00
43071;BME280;36278;47.952;21.714;2023-04-01T03:28:34;98808.03;;;10.19;100.00
43071;BME280;36278;47.952;21.714;2023-04-01T03:30:59;98819.69;;;10.26;100.00
43071;BME280;36278;47.952;21.714;2023-04-01T03:33:25;98815.38;;;10.25;100.00
43071;BME280;36278;47.952;21.714;2023-04-01T03:35:50;98818.06;;;10.15;100.00
43071;BME280;36278;47.952;21.714;2023-04-01T03:38:18;98807.63;;;10.14;100.00
43071;BME280;36278;47.952;21.714;2023-04-01T03:40:44;98799.63;;;10.05;100.00
43071;BME280;36278;47.952;21.714;2023-04-01T03:43:09;98804.91;;;10.05;100.00
43071;BME280;36278;47.952;21.714;2023-04-01T03:45:42;98801.50;;;9.95;100.00
43071;BME280;36278;47.952;21.714;2023-04-01T03:48:08;98815.41;;;9.97;100.00
43071;BME280;36278;47.952;21.714;2023-04-01T03:50:34;98816.97;;;9.90;100.00
43071;BME280;36278;47.952;21.714;2023-04-01T03:53:00;98801.41;;;9.87;100.00
43071;BME280;36278;47.952;21.714;2023-04-01T03:55:25;98804.34;;;9.84;100.00
43071;BME280;36278;47.952;21.714;2023-04-01T03:57:51;98810.25;;;9.78;100.00
43071;BME280;36278;47.952;21.714;2023-04-01T04:00:17;98803.56;;;9.74;100.00
43071;BME280;36278;47.952;21.714;2023-04-01T04:02:42;98811.91;;;9.79;100.00
43071;BME280;36278;47.952;21.714;2023-04-01T04:05:08;98786.25;;;9.62;100.00
43071;BME280;36278;47.952;21.714;2023-04-01T04:07:34;98807.41;;;9.62;100.00
43071;BME280;36278;47.952;21.714;2023-04-01T04:10:00;98798.09;;;9.58;100.00
43071;BME280;36278;47.952;21.714;2023-04-01T04:12:26;98801.56;;;9.58;100.00
43071;BME280;36278;47.952;21.714;2023-04-01T04:14:51;98804.50;;;9.55;100.00
43071;BME280;36278;47.952;21.714;2023-04-01T04:17:17;98798.28;;;9.46;100.00
43071;BME280;36278;47.952;21.714;2023-04-01T04:19:42;98804.41;;;9.47;100.00
43071;BME280;36278;47.952;21.714;2023-04-01T04:22:08;98795.66;;;9.46;100.00
43071;BME280;36278;47.952;21.714;2023-04-01T04:24:36;98809.84;;;9.45;100.00
43071;BME280;36278;47.952;21.714;2023-04-01T04:27:03;98810.69;;;9.36;100.00
43071;BME280;36278;47.952;21.714;2023-04-01T04:29:29;98805.72;;;9.33;100.00
43071;BME280;36278;47.952;21.714;2023-04-01T04:31:54;98811.97;;;9.32;100.00
43071;BME280;36278;47.952;21.714;2023-04-01T04:34:20;98813.00;;;9.21;100.00
43071;BME280;36278;47.952;21.714;2023-04-01T04:36:47;98811.75;;;9.16;100.00
43071;BME280;36278;47.952;21.714;2023-04-01T04:39:13;98824.81;;;9.17;100.00
43071;BME280;36278;47.952;21.714;2023-04-01T04:41:39;98818.00;;;9.15;100.00
43071;BME280;36278;47.952;21.714;2023-04-01T04:44:04;98818.69;;;9.17;100.00
43071;BME280;36278;47.952;21.714;2023-04-01T04:46:30;98811.34;;;9.11;100.00
43071;BME280;36278;47.952;21.714;2023-04-01T04:48:56;98820.66;;;9.15;100.00
43071;BME280;36278;47.952;21.714;2023-04-01T04:51:22;98823.16;;;9.16;100.00
43071;BME280;36278;47.952;21.714;2023-04-01T04:53:48;98824.66;;;9.19;100.00
43071;BME280;36278;47.952;21.714;2023-04-01T04:56:17;98838.69;;;9.19;100.00
43071;BME280;36278;47.952;21.714;2023-04-01T04:58:43;98837.47;;;9.23;100.00
43071;BME280;36278;47.952;21.714;2023-04-01T05:01:11;98832.03;;;9.25;100.00
43071;BME280;36278;47.952;21.714;2023-04-01T05:03:37;98832.69;;;9.27;100.00
43071;BME280;36278;47.952;21.714;2023-04-01T05:06:04;98833.69;;;9.26;100.00
43071;BME280;36278;47.952;21.714;2023-04-01T05:08:30;98842.44;;;9.26;100.00
43071;BME280;36278;47.952;21.714;2023-04-01T05:10:55;98835.78;;;9.22;100.00
43071;BME280;36278;47.952;21.714;2023-04-01T05:13:21;98835.06;;;9.30;100.00
43071;BME280;36278;47.952;21.714;2023-04-01T05:15:47;98838.25;;;9.34;100.00
43071;BME280;36278;47.952;21.714;2023-04-01T05:18:12;98837.97;;;9.37;100.00
43071;BME280;36278;47.952;21.714;2023-04-01T05:20:38;98840.16;;;9.41;100.00
43071;BME280;36278;47.952;21.714;2023-04-01T05:23:03;98828.03;;;9.48;100.00
43071;BME280;36278;47.952;21.714;2023-04-01T05:25:29;98838.16;;;9.63;100.00
43071;BME280;36278;47.952;21.714;2023-04-01T05:27:54;98850.91;;;9.67;100.00
43071;BME280;36278;47.952;21.714;2023-04-01T05:30:21;98849.06;;;9.77;100.00
43071;BME280;36278;47.952;21.714;2023-04-01T05:32:46;98841.00;;;9.79;100.00
43071;BME280;36278;47.952;21.714;2023-04-01T05:35:12;98845.75;;;9.93;100.00
43071;BME280;36278;47.952;21.714;2023-04-01T05:37:37;98840.78;;;9.90;100.00
43071;BME280;36278;47.952;21.714;2023-04-01T05:40:03;98837.81;;;9.93;100.00
43071;BME280;36278;47.952;21.714;2023-04-01T05:42:29;98841.84;;;9.97;100.00
43071;BME280;36278;47.952;21.714;2023-04-01T05:44:55;98836.34;;;10.08;100.00
43071;BME280;36278;47.952;21.714;2023-04-01T05:47:21;98839.34;;;10.23;100.00
43071;BME280;36278;47.952;21.714;2023-04-01T05:49:47;98839.75;;;10.28;100.00
43071;BME280;36278;47.952;21.714;2023-04-01T05:52:13;98833.84;;;10.34;100.00
43071;BME280;36278;47.952;21.714;2023-04-01T05:54:38;98825.13;;;10.42;100.00
43071;BME280;36278;47.952;21.714;2023-04-01T05:57:04;98839.06;;;10.44;100.00
43071;BME280;36278;47.952;21.714;2023-04-01T05:59:29;98837.13;;;10.19;100.00
43071;BME280;36278;47.952;21.714;2023-04-01T06:01:57;98827.78;;;10.24;100.00
43071;BME280;36278;47.952;21.714;2023-04-01T06:04:22;98835.28;;;10.29;100.00
43071;BME280;36278;47.952;21.714;2023-04-01T06:06:48;98838.09;;;10.45;100.00
43071;BME280;36278;47.952;21.714;2023-04-01T06:09:18;98835.44;;;10.18;100.00
43071;BME280;36278;47.952;21.714;2023-04-01T06:14:35;98844.88;;;10.48;100.00
43071;BME280;36278;47.952;21.714;2023-04-01T06:17:16;98839.38;;;10.59;100.00
43071;BME280;36278;47.952;21.714;2023-04-01T06:33:15;98821.72;;;10.32;100.00
43071;BME280;36278;47.952;21.714;2023-04-01T06:35:56;98825.44;;;10.57;100.00
43071;BME280;36278;47.952;21.714;2023-04-01T06:42:12;98827.56;;;10.53;100.00
43071;BME280;36278;47.952;21.714;2023-04-01T06:49:48;98823.69;;;10.83;100.00
43071;BME280;36278;47.952;21.714;2023-04-01T06:55:32;98818.22;;;10.85;100.00
43071;BME280;36278;47.952;21.714;2023-04-01T06:58:04;98819.69;;;10.61;100.00
43071;BME280;36278;47.952;21.714;2023-04-01T07:00:36;98816.75;;;10.90;100.00
43071;BME280;36278;47.952;21.714;2023-04-01T07:05:33;98826.81;;;11.39;98.65
43071;BME280;36278;47.952;21.714;2023-04-01T07:08:02;98812.81;;;11.55;97.44
43071;BME280;36278;47.952;21.714;2023-04-01T07:10:34;98826.06;;;11.55;97.21
43071;BME280;36278;47.952;21.714;2023-04-01T07:13:04;98818.88;;;11.73;96.68
43071;BME280;36278;47.952;21.714;2023-04-01T07:15:36;98821.88;;;11.44;98.92
43071;BME280;36278;47.952;21.714;2023-04-01T07:18:21;98810.75;;;11.74;98.79
43071;BME280;36278;47.952;21.714;2023-04-01T07:20:48;98810.66;;;11.84;98.91
43071;BME280;36278;47.952;21.714;2023-04-01T07:23:22;98825.97;;;12.06;97.87
43071;BME280;36278;47.952;21.714;2023-04-01T07:25:53;98828.13;;;12.11;94.07
43071;BME280;36278;47.952;21.714;2023-04-01T07:28:20;98824.44;;;11.96;95.63
43071;BME280;36278;47.952;21.714;2023-04-01T07:33:37;98808.09;;;12.17;95.78
43071;BME280;36278;47.952;21.714;2023-04-01T07:36:17;98811.41;;;12.35;95.12
43071;BME280;36278;47.952;21.714;2023-04-01T07:41:45;98812.84;;;12.05;98.43
43071;BME280;36278;47.952;21.714;2023-04-01T07:44:20;98821.31;;;12.00;95.40
43071;BME280;36278;47.952;21.714;2023-04-01T07:52:40;98825.91;;;12.73;91.50
43071;BME280;36278;47.952;21.714;2023-04-01T07:55:22;98819.22;;;12.85;91.23
43071;BME280;36278;47.952;21.714;2023-04-01T07:58:44;98813.25;;;13.00;90.54
43071;BME280;36278;47.952;21.714;2023-04-01T08:01:05;98808.56;;;13.10;88.33
43071;BME280;36278;47.952;21.714;2023-04-01T08:23:18;98809.78;;;13.63;78.24
43071;BME280;36278;47.952;21.714;2023-04-01T08:25:55;98810.94;;;13.68;80.04
43071;BME280;36278;47.952;21.714;2023-04-01T08:28:36;98812.34;;;13.87;80.13
43071;BME280;36278;47.952;21.714;2023-04-01T08:33:36;98800.47;;;14.29;77.45
43071;BME280;36278;47.952;21.714;2023-04-01T08:38:53;98813.75;;;14.06;78.35
43071;BME280;36278;47.952;21.714;2023-04-01T08:47:13;98809.69;;;14.87;72.49
43071;BME280;36278;47.952;21.714;2023-04-01T08:52:37;98815.78;;;14.58;73.25
43071;BME280;36278;47.952;21.714;2023-04-01T08:55:26;98820.88;;;14.37;73.93
43071;BME280;36278;47.952;21.714;2023-04-01T09:00:37;98804.66;;;14.23;72.30
43071;BME280;36278;47.952;21.714;2023-04-01T09:13:46;98817.03;;;14.39;74.17
43071;BME280;36278;47.952;21.714;2023-04-01T09:22:06;98812.88;;;14.68;71.11
43071;BME280;36278;47.952;21.714;2023-04-01T09:27:44;98810.47;;;14.73;72.82
43071;BME280;36278;47.952;21.714;2023-04-01T09:41:57;98793.53;;;15.03;69.41
43071;BME280;36278;47.952;21.714;2023-04-01T09:44:39;98792.75;;;15.32;71.64
43071;BME280;36278;47.952;21.714;2023-04-01T09:52:44;98801.81;;;16.76;62.73
43071;BME280;36278;47.952;21.714;2023-04-01T09:58:00;98797.19;;;16.63;64.45
43071;BME280;36278;47.952;21.714;2023-04-01T10:03:33;98801.06;;;16.03;64.78
43071;BME280;36278;47.952;21.714;2023-04-01T10:26:39;98785.41;;;17.07;62.50
43071;BME280;36278;47.952;21.714;2023-04-01T10:56:36;98794.03;;;15.81;65.98
43071;BME280;36278;47.952;21.714;2023-04-01T11:15:31;98778.00;;;17.37;58.30
43071;BME280;36278;47.952;21.714;2023-04-01T11:37:09;98765.78;;;19.36;51.72
43071;BME280;36278;47.952;21.714;2023-04-01T11:45:00;98767.50;;;18.58;53.03
43071;BME280;36278;47.952;21.714;2023-04-01T11:59:13;98773.38;;;17.24;59.61
43071;BME280;36278;47.952;21.714;2023-04-01T12:02:11;98767.63;;;17.62;58.12
43071;BME280;36278;47.952;21.714;2023-04-01T12:17:54;98772.56;;;17.24;60.33
43071;BME280;36278;47.952;21.714;2023-04-01T12:20:45;98769.19;;;17.50;59.23
43071;BME280;36278;47.952;21.714;2023-04-01T12:23:21;98775.59;;;17.14;59.38
43071;BME280;36278;47.952;21.714;2023-04-01T12:26:22;98767.97;;;17.11;59.84
43071;BME280;36278;47.952;21.714;2023-04-01T12:32:09;98770.22;;;18.84;54.95
43071;BME280;36278;47.952;21.714;2023-04-01T12:37:29;98766.25;;;18.60;54.63
43071;BME280;36278;47.952;21.714;2023-04-01T12:51:58;98768.31;;;18.52;54.96
43071;BME280;36278;47.952;21.714;2023-04-01T13:02:24;98763.81;;;18.85;55.21
43071;BME280;36278;47.952;21.714;2023-04-01T13:07:54;98755.53;;;18.60;53.83
43071;BME280;36278;47.952;21.714;2023-04-01T13:15:49;98762.63;;;17.93;58.11
43071;BME280;36278;47.952;21.714;2023-04-01T13:18:43;98765.06;;;17.47;58.25
43071;BME280;36278;47.952;21.714;2023-04-01T13:29:16;98763.69;;;18.12;54.14
43071;BME280;36278;47.952;21.714;2023-04-01T13:32:00;98777.41;;;17.83;55.29
43071;BME280;36278;47.952;21.714;2023-04-01T13:45:12;98774.72;;;17.76;55.58
43071;BME280;36278;47.952;21.714;2023-04-01T13:48:02;98776.13;;;17.72;56.13
43071;BME280;36278;47.952;21.714;2023-04-01T13:58:58;98778.41;;;17.75;56.45
43071;BME280;36278;47.952;21.714;2023-04-01T14:12:04;98790.75;;;16.79;58.75
43071;BME280;36278;47.952;21.714;2023-04-01T14:20:37;98790.66;;;16.51;60.28
43071;BME280;36278;47.952;21.714;2023-04-01T14:42:41;98793.94;;;16.46;61.16
43071;BME280;36278;47.952;21.714;2023-04-01T14:50:50;98795.56;;;16.90;59.69
43071;BME280;36278;47.952;21.714;2023-04-01T14:53:28;98795.75;;;17.45;58.17
43071;BME280;36278;47.952;21.714;2023-04-01T14:58:22;98799.09;;;17.53;56.56
43071;BME280;36278;47.952;21.714;2023-04-01T15:03:48;98799.50;;;17.57;57.13
43071;BME280;36278;47.952;21.714;2023-04-01T15:06:56;98802.75;;;17.18;58.47
43071;BME280;36278;47.952;21.714;2023-04-01T15:12:29;98797.16;;;16.85;58.34
43071;BME280;36278;47.952;21.714;2023-04-01T15:15:21;98805.00;;;17.14;57.57
43071;BME280;36278;47.952;21.714;2023-04-01T15:17:57;98797.81;;;17.15;57.39
43071;BME280;36278;47.952;21.714;2023-04-01T15:23:21;98803.09;;;17.36;56.60
43071;BME280;36278;47.952;21.714;2023-04-01T15:34:18;98804.34;;;16.41;59.31
43071;BME280;36278;47.952;21.714;2023-04-01T15:37:04;98814.03;;;16.21;58.85
43071;BME280;36278;47.952;21.714;2023-04-01T15:39:53;98816.69;;;16.21;59.28
43071;BME280;36278;47.952;21.714;2023-04-01T15:45:17;98818.28;;;16.37;58.37
43071;BME280;36278;47.952;21.714;2023-04-01T15:47:46;98817.66;;;16.35;58.06
43071;BME280;36278;47.952;21.714;2023-04-01T15:55:42;98823.63;;;16.37;58.81
43071;BME280;36278;47.952;21.714;2023-04-01T16:01:24;98835.44;;;15.91;60.99
43071;BME280;36278;47.952;21.714;2023-04-01T16:12:01;98832.94;;;15.60;64.24
43071;BME280;36278;47.952;21.714;2023-04-01T16:20:20;98831.72;;;15.19;66.80
43071;BME280;36278;47.952;21.714;2023-04-01T16:23:04;98837.03;;;15.04;66.78
43071;BME280;36278;47.952;21.714;2023-04-01T16:25:44;98839.50;;;14.91;67.76
43071;BME280;36278;47.952;21.714;2023-04-01T16:28:32;98838.72;;;14.82;68.80
43071;BME280;36278;47.952;21.714;2023-04-01T16:38:40;98851.53;;;14.64;71.77
43071;BME280;36278;47.952;21.714;2023-04-01T16:41:14;98852.78;;;14.53;72.20
43071;BME280;36278;47.952;21.714;2023-04-01T16:43:46;98861.47;;;14.47;72.81
43071;BME280;36278;47.952;21.714;2023-04-01T16:51:48;98868.25;;;14.26;73.57
43071;BME280;36278;47.952;21.714;2023-04-01T17:00:02;98880.84;;;14.01;78.19
43071;BME280;36278;47.952;21.714;2023-04-01T17:02:30;98879.38;;;13.91;78.26
43071;BME280;36278;47.952;21.714;2023-04-01T17:05:04;98885.56;;;13.83;76.86
43071;BME280;36278;47.952;21.714;2023-04-01T17:13:17;98892.28;;;13.63;80.20
43071;BME280;36278;47.952;21.714;2023-04-01T17:35:47;98903.31;;;13.27;81.63
43071;BME280;36278;47.952;21.714;2023-04-01T17:49:07;98919.13;;;13.29;83.26
43071;BME280;36278;47.952;21.714;2023-04-01T17:51:57;98925.44;;;13.28;82.45
43071;BME280;36278;47.952;21.714;2023-04-01T18:00:23;98936.06;;;13.28;86.14
43071;BME280;36278;47.952;21.714;2023-04-01T18:08:38;98928.41;;;13.33;85.22
43071;BME280;36278;47.952;21.714;2023-04-01T18:16:58;98949.03;;;13.39;83.75
43071;BME280;36278;47.952;21.714;2023-04-01T18:22:59;98954.50;;;13.37;86.03
43071;BME280;36278;47.952;21.714;2023-04-01T18:27:43;98954.50;;;13.37;85.32
43071;BME280;36278;47.952;21.714;2023-04-01T18:30:21;98960.16;;;13.34;86.12
43071;BME280;36278;47.952;21.714;2023-04-01T18:33:02;98965.31;;;13.36;84.83
43071;BME280;36278;47.952;21.714;2023-04-01T18:35:47;98969.13;;;13.33;85.07
43071;BME280;36278;47.952;21.714;2023-04-01T18:38:24;98970.47;;;13.29;85.39
43071;BME280;36278;47.952;21.714;2023-04-01T18:41:07;98972.13;;;13.30;86.32
43071;BME280;36278;47.952;21.714;2023-04-01T18:49:54;98977.28;;;13.24;88.26
43071;BME280;36278;47.952;21.714;2023-04-01T18:51:59;98976.78;;;13.20;87.29
43071;BME280;36278;47.952;21.714;2023-04-01T18:54:33;98989.25;;;13.20;88.58
43071;BME280;36278;47.952;21.714;2023-04-01T18:57:17;98983.78;;;13.21;89.82
43071;BME280;36278;47.952;21.714;2023-04-01T18:59:52;98981.72;;;13.15;88.73
43071;BME280;36278;47.952;21.714;2023-04-01T19:02:31;98984.03;;;13.18;88.30
43071;BME280;36278;47.952;21.714;2023-04-01T19:05:09;98988.72;;;13.16;88.69
43071;BME280;36278;47.952;21.714;2023-04-01T19:21:01;98983.00;;;12.86;88.80
43071;BME280;36278;47.952;21.714;2023-04-01T19:26:17;98988.16;;;12.72;91.65
43071;BME280;36278;47.952;21.714;2023-04-01T19:29:18;98994.28;;;12.64;93.73
43071;BME280;36278;47.952;21.714;2023-04-01T19:32:33;98995.53;;;12.52;94.39
43071;BME280;36278;47.952;21.714;2023-04-01T19:35:07;98997.34;;;12.43;93.45
43071;BME280;36278;47.952;21.714;2023-04-01T19:45:40;99011.13;;;12.13;96.83
43071;BME280;36278;47.952;21.714;2023-04-01T19:53:10;99014.53;;;11.97;97.72
43071;BME280;36278;47.952;21.714;2023-04-01T19:55:56;99022.97;;;11.92;98.12
43071;BME280;36278;47.952;21.714;2023-04-01T19:58:53;99016.47;;;11.87;97.77
43071;BME280;36278;47.952;21.714;2023-04-01T20:01:45;99022.91;;;11.84;98.90
43071;BME280;36278;47.952;21.714;2023-04-01T20:04:22;99020.69;;;11.79;99.52
43071;BME280;36278;47.952;21.714;2023-04-01T20:19:42;99026.13;;;11.52;100.00
43071;BME280;36278;47.952;21.714;2023-04-01T20:25:01;99026.38;;;11.41;100.00
43071;BME280;36278;47.952;21.714;2023-04-01T20:27:39;99036.59;;;11.36;100.00
43071;BME280;36278;47.952;21.714;2023-04-01T20:47:44;99043.72;;;11.00;100.00
43071;BME280;36278;47.952;21.714;2023-04-01T20:55:53;99055.50;;;10.87;100.00
43071;BME280;36278;47.952;21.714;2023-04-01T21:01:41;99050.94;;;10.80;100.00
43071;BME280;36278;47.952;21.714;2023-04-01T21:04:36;99061.00;;;10.76;100.00
43071;BME280;36278;47.952;21.714;2023-04-01T21:08:28;99064.09;;;10.72;100.00
43071;BME280;36278;47.952;21.714;2023-04-01T21:10:23;99067.19;;;10.67;100.00
43071;BME280;36278;47.952;21.714;2023-04-01T21:15:40;99067.78;;;10.61;100.00
43071;BME280;36278;47.952;21.714;2023-04-01T21:18:23;99066.69;;;10.54;100.00
43071;BME280;36278;47.952;21.714;2023-04-01T21:36:10;99092.53;;;10.32;100.00
43071;BME280;36278;47.952;21.714;2023-04-01T21:58:43;99078.22;;;10.62;100.00
43071;BME280;36278;47.952;21.714;2023-04-01T22:06:34;99090.63;;;10.62;100.00
43071;BME280;36278;47.952;21.714;2023-04-01T22:12:13;99087.88;;;10.54;100.00
43071;BME280;36278;47.952;21.714;2023-04-01T22:17:28;99097.78;;;10.52;100.00
43071;BME280;36278;47.952;21.714;2023-04-01T22:25:31;99099.50;;;10.43;100.00
43071;BME280;36278;47.952;21.714;2023-04-01T22:28:35;99105.34;;;10.37;100.00
43071;BME280;36278;47.952;21.714;2023-04-01T22:31:05;99104.78;;;10.33;100.00
43071;BME280;36278;47.952;21.714;2023-04-01T22:36:43;99119.97;;;10.41;100.00
43071;BME280;36278;47.952;21.714;2023-04-01T22:42:04;99108.38;;;10.42;100.00
43071;BME280;36278;47.952;21.714;2023-04-01T22:51:07;99127.22;;;10.39;100.00
43071;BME280;36278;47.952;21.714;2023-04-01T22:54:01;99123.47;;;10.32;100.00
43071;BME280;36278;47.952;21.714;2023-04-01T22:56:35;99130.72;;;10.30;100.00
43071;BME280;36278;47.952;21.714;2023-04-01T22:59:24;99127.25;;;10.29;100.00
43071;BME280;36278;47.952;21.714;2023-04-01T23:02:05;99122.09;;;10.18;100.00
43071;BME280;36278;47.952;21.714;2023-04-01T23:04:38;99137.16;;;10.08;100.00
43071;BME280;36278;47.952;21.714;2023-04-01T23:09:58;99135.09;;;10.02;100.00
43071;BME280;36278;47.952;21.714;2023-04-01T23:12:27;99135.19;;;10.00;100.00
43071;BME280;36278;47.952;21.714;2023-04-01T23:14:58;99131.03;;;9.98;100.00
43071;BME280;36278;47.952;21.714;2023-04-01T23:20:28;99140.78;;;9.97;100.00
43071;BME280;36278;47.952;21.714;2023-04-01T23:33:28;99141.19;;;10.12;100.00
43071;BME280;36278;47.952;21.714;2023-04-01T23:36:02;99137.72;;;10.11;100.00
43071;BME280;36278;47.952;21.714;2023-04-01T23:38:40;99146.34;;;10.14;100.00
43071;BME280;36278;47.952;21.714;2023-04-01T23:41:16;99143.16;;;10.10;100.00
43071;BME280;36278;47.952;21.714;2023-04-01T23:43:43;99152.75;;;10.11;100.00
43071;BME280;36278;47.952;21.714;2023-04-01T23:46:12;99150.53;;;10.06;100.00
43071;BME280;36278;47.952;21.714;2023-04-01T23:48:43;99160.41;;;10.04;100.00
43071;BME280;36278;47.952;21.714;2023-04-01T23:51:26;99159.16;;;9.99;100.00
43071;BME280;36278;47.952;21.714;2023-04-01T23:54:04;99165.28;;;9.99;100.00